createdAt,value
2018-07-17T00:01:33.401Z,3.20
2018-07-17T00:04:02.020Z,3.10
2018-07-17T00:06:30.720Z,3.10
2018-07-17T00:08:59.248Z,3.43
2018-07-17T00:11:27.828Z,3.17
2018-07-17T00:13:56.416Z,3.20
2018-07-17T00:16:25.130Z,3.33
2018-07-17T00:18:54.024Z,2.90
2018-07-17T00:21:23.581Z,3.23
2018-07-17T00:23:52.261Z,3.10
2018-07-17T00:26:20.826Z,3.10
2018-07-17T00:28:49.466Z,2.97
2018-07-17T00:31:18.610Z,2.90
2018-07-17T00:33:47.217Z,2.90
2018-07-17T00:36:15.852Z,2.63
2018-07-17T00:38:44.442Z,2.33
2018-07-17T00:41:13.146Z,2.70
2018-07-17T00:43:41.761Z,2.80
2018-07-17T00:46:10.585Z,2.77
2018-07-17T00:48:39.199Z,3.00
2018-07-17T00:51:08.241Z,2.90
2018-07-17T00:53:36.901Z,3.30
2018-07-17T00:56:05.529Z,3.10
2018-07-17T00:58:34.089Z,3.50
2018-07-17T01:01:01.853Z,3.30
2018-07-17T01:03:35.908Z,3.03
2018-07-17T01:06:09.684Z,2.80
2018-07-17T01:08:43.581Z,3.37
2018-07-17T01:11:17.391Z,3.43
2018-07-17T01:13:53.183Z,3.60
2018-07-17T01:16:21.763Z,3.43
2018-07-17T01:18:50.420Z,3.77
2018-07-17T01:21:19.669Z,3.27
2018-07-17T01:23:48.389Z,3.70
2018-07-17T01:26:16.977Z,3.67
2018-07-17T01:28:45.548Z,3.70
2018-07-17T01:31:14.072Z,4.00
2018-07-17T01:33:42.627Z,3.63
2018-07-17T01:36:11.202Z,3.60
2018-07-17T01:38:39.875Z,3.80
2018-07-17T01:41:08.439Z,3.30
2018-07-17T01:43:37.091Z,4.40
2018-07-17T01:46:05.963Z,4.80
2018-07-17T01:48:34.661Z,5.30
2018-07-17T01:51:03.240Z,4.80
2018-07-17T01:53:31.851Z,4.57
2018-07-17T01:56:00.417Z,4.37
2018-07-17T01:58:28.964Z,4.73
2018-07-17T02:00:57.562Z,4.60
2018-07-17T02:03:26.048Z,4.50
2018-07-17T02:05:54.572Z,4.83
2018-07-17T02:08:23.491Z,5.77
2018-07-17T02:10:52.162Z,4.93
2018-07-17T02:13:20.836Z,4.90
2018-07-17T02:15:49.416Z,5.50
2018-07-17T02:18:17.997Z,5.87
2018-07-17T02:20:46.517Z,6.80
2018-07-17T02:23:15.061Z,7.63
2018-07-17T02:25:43.618Z,7.20
2018-07-17T02:28:12.288Z,6.70
2018-07-17T02:30:40.899Z,8.47
2018-07-17T02:33:09.614Z,8.70
2018-07-17T02:35:38.353Z,8.60
2018-07-17T02:38:06.909Z,8.57
2018-07-17T02:40:35.458Z,8.60
2018-07-17T02:43:04.077Z,9.43
2018-07-17T02:45:32.666Z,11.33
2018-07-17T02:48:01.492Z,11.07
2018-07-17T02:50:30.220Z,12.03
2018-07-17T02:52:58.831Z,12.20
2018-07-17T02:55:27.378Z,13.27
2018-07-17T02:57:56.013Z,12.67
2018-07-17T03:00:24.653Z,14.47
2018-07-17T03:02:53.303Z,13.30
2018-07-17T03:05:22.015Z,12.43
2018-07-17T03:07:50.880Z,12.93
2018-07-17T03:10:19.501Z,13.23
2018-07-17T03:12:48.615Z,12.67
2018-07-17T03:15:17.273Z,13.33
2018-07-17T03:17:45.845Z,14.47
2018-07-17T03:20:14.454Z,13.73
2018-07-17T03:22:43.027Z,15.17
2018-07-17T03:25:12.030Z,13.37
2018-07-17T03:27:40.626Z,15.37
2018-07-17T03:30:08.860Z,15.03
2018-07-17T03:32:37.797Z,14.30
2018-07-17T03:35:06.797Z,14.60
2018-07-17T03:37:35.433Z,15.67
2018-07-17T03:40:04.421Z,18.73
2018-07-17T03:42:33.192Z,18.07
2018-07-17T03:45:01.768Z,18.30
2018-07-17T03:47:30.380Z,18.87
2018-07-17T03:49:58.899Z,19.67
2018-07-17T03:52:27.613Z,19.17
2018-07-17T03:54:56.347Z,21.40
2018-07-17T03:57:24.953Z,22.03
2018-07-17T03:59:53.496Z,21.03
2018-07-17T04:02:22.052Z,20.60
2018-07-17T04:04:50.737Z,20.23
2018-07-17T04:07:19.304Z,21.87
2018-07-17T04:09:48.231Z,21.43
2018-07-17T04:12:16.849Z,22.00
2018-07-17T04:14:45.551Z,20.80
2018-07-17T04:17:14.320Z,23.00
2018-07-17T04:19:42.648Z,25.13
2018-07-17T04:22:11.240Z,22.30
2018-07-17T04:24:39.819Z,25.80
2018-07-17T04:27:08.422Z,22.00
2018-07-17T04:29:37.022Z,26.30
2018-07-17T04:32:05.964Z,26.03
2018-07-17T04:34:34.570Z,25.80
2018-07-17T04:37:03.180Z,26.13
2018-07-17T04:39:31.816Z,28.65
2018-07-17T04:42:00.896Z,30.97
2018-07-17T04:44:29.493Z,30.13
2018-07-17T04:46:58.059Z,29.83
2018-07-17T04:49:26.642Z,32.87
2018-07-17T04:51:55.516Z,30.27
2018-07-17T04:54:24.166Z,30.93
2018-07-17T04:56:52.776Z,31.10
2018-07-17T04:59:21.470Z,29.10
2018-07-17T05:01:50.122Z,30.50
2018-07-17T05:04:18.922Z,28.17
2018-07-17T05:06:47.556Z,27.93
2018-07-17T05:09:16.599Z,26.87
2018-07-17T05:11:45.214Z,27.87
2018-07-17T05:14:13.859Z,26.30
2018-07-17T05:16:42.543Z,26.03
2018-07-17T05:19:11.187Z,26.87
2018-07-17T05:21:39.840Z,26.57
2018-07-17T05:24:09.052Z,27.67
2018-07-17T05:26:38.170Z,24.80
2018-07-17T05:29:07.089Z,25.67
2018-07-17T05:31:35.601Z,27.10
2018-07-17T05:34:04.592Z,27.73
2018-07-17T05:36:33.280Z,27.60
2018-07-17T05:39:01.837Z,28.17
2018-07-17T05:41:30.602Z,26.80
2018-07-17T05:43:59.288Z,27.43
2018-07-17T05:46:28.001Z,26.00
2018-07-17T05:48:56.677Z,25.40
2018-07-17T05:51:25.362Z,26.83
2018-07-17T05:53:54.165Z,29.03
2018-07-17T05:56:22.837Z,26.27
2018-07-17T05:58:51.471Z,29.57
2018-07-17T06:01:20.096Z,27.87
2018-07-17T06:03:49.053Z,27.77
2018-07-17T06:06:17.843Z,24.73
2018-07-17T06:08:46.445Z,24.07
2018-07-17T06:11:15.164Z,25.50
2018-07-17T06:13:43.769Z,24.83
2018-07-17T06:16:12.433Z,22.67
2018-07-17T06:18:41.334Z,23.20
2018-07-17T06:21:10.417Z,22.33
2018-07-17T06:23:39.042Z,21.10
2018-07-17T06:26:07.706Z,21.43
2018-07-17T06:28:36.708Z,19.87
2018-07-17T06:31:05.478Z,20.03
2018-07-17T06:33:34.057Z,18.07
2018-07-17T06:36:02.829Z,17.97
2018-07-17T06:38:31.510Z,18.30
2018-07-17T06:41:00.813Z,16.90
2018-07-17T06:43:29.445Z,15.30
2018-07-17T06:45:57.734Z,15.00
2018-07-17T06:48:26.591Z,14.53
2018-07-17T06:50:55.224Z,13.13
2018-07-17T06:53:24.260Z,14.63
2018-07-17T06:55:53.237Z,13.23
2018-07-17T06:58:21.892Z,12.70
2018-07-17T07:00:50.488Z,11.17
2018-07-17T07:03:19.216Z,10.57
2018-07-17T07:05:47.894Z,10.03
2018-07-17T07:08:16.980Z,9.67
2018-07-17T07:10:45.637Z,9.30
2018-07-17T07:13:14.284Z,8.90
2018-07-17T07:15:42.822Z,8.93
2018-07-17T07:18:11.773Z,7.90
2018-07-17T07:20:40.407Z,7.60
2018-07-17T07:23:09.215Z,6.43
2018-07-17T07:25:37.769Z,6.30
2018-07-17T07:28:06.497Z,5.67
2018-07-17T07:30:35.077Z,5.30
2018-07-17T07:33:03.669Z,4.70
2018-07-17T07:35:32.378Z,4.50
2018-07-17T07:38:01.630Z,4.53
2018-07-17T07:40:30.243Z,4.13
2018-07-17T07:42:58.877Z,4.33
2018-07-17T07:45:27.725Z,4.37
2018-07-17T07:47:56.934Z,3.90
2018-07-17T07:50:26.133Z,3.77
2018-07-17T07:52:55.165Z,3.43
2018-07-17T07:55:23.647Z,3.37
2018-07-17T07:57:52.816Z,3.40
2018-07-17T08:00:21.592Z,3.00
2018-07-17T08:02:50.208Z,2.67
2018-07-17T08:05:18.917Z,2.90
2018-07-17T08:07:47.535Z,2.53
2018-07-17T08:10:16.177Z,2.37
2018-07-17T08:12:44.588Z,2.70
2018-07-17T08:15:13.621Z,2.40
2018-07-17T08:17:42.490Z,2.77
2018-07-17T08:20:11.082Z,2.60
2018-07-17T08:22:39.772Z,2.50
2018-07-17T08:25:08.636Z,2.80
2018-07-17T08:27:37.227Z,2.70
2018-07-17T08:30:05.890Z,2.50
2018-07-17T08:32:34.457Z,2.90
2018-07-17T08:35:03.063Z,2.53
2018-07-17T08:37:31.679Z,2.73
2018-07-17T08:40:00.695Z,2.70
2018-07-17T08:42:29.738Z,2.70
2018-07-17T08:44:58.803Z,2.33
2018-07-17T08:47:27.349Z,2.30
2018-07-17T08:49:56.003Z,2.30
2018-07-17T08:52:25.332Z,2.50
2018-07-17T08:54:54.078Z,2.43
2018-07-17T08:57:23.063Z,2.40
2018-07-17T08:59:51.856Z,2.40
2018-07-17T09:02:20.467Z,2.80
2018-07-17T09:04:49.014Z,2.50
2018-07-17T09:07:18.425Z,2.40
2018-07-17T09:09:47.097Z,2.60
2018-07-17T09:12:15.710Z,2.40
2018-07-17T09:14:44.469Z,2.47
2018-07-17T09:17:13.092Z,2.90
2018-07-17T09:19:41.400Z,2.80
2018-07-17T09:22:10.060Z,2.40
2018-07-17T09:24:38.690Z,2.80
2018-07-17T09:27:07.497Z,2.70
2018-07-17T09:29:36.608Z,2.57
2018-07-17T09:32:05.592Z,2.90
2018-07-17T09:34:34.248Z,2.90
2018-07-17T09:37:03.180Z,2.50
2018-07-17T09:39:31.736Z,2.70
2018-07-17T09:42:00.432Z,2.87
2018-07-17T09:44:29.413Z,2.50
2018-07-17T09:46:58.026Z,2.70
2018-07-17T09:49:26.669Z,2.80
2018-07-17T09:51:55.587Z,2.67
2018-07-17T09:54:24.270Z,2.70
2018-07-17T09:56:52.825Z,2.63
2018-07-17T09:59:21.428Z,3.00
2018-07-17T10:01:55.238Z,2.47
2018-07-17T10:04:23.874Z,2.60
2018-07-17T10:06:52.532Z,2.63
2018-07-17T10:09:21.175Z,2.90
2018-07-17T10:11:49.810Z,2.60
2018-07-17T10:14:18.436Z,2.90
2018-07-17T10:16:47.157Z,2.87
2018-07-17T10:19:16.530Z,2.33
2018-07-17T10:21:45.417Z,2.23
2018-07-17T10:24:14.074Z,2.47
2018-07-17T10:26:43.615Z,2.17
2018-07-17T10:29:12.340Z,2.43
2018-07-17T10:31:40.656Z,2.10
2018-07-17T10:34:09.455Z,2.30
2018-07-17T10:36:38.127Z,2.30
2018-07-17T10:39:08.688Z,2.23
2018-07-17T10:41:37.755Z,2.20
2018-07-17T10:44:06.769Z,2.27
2018-07-17T10:46:35.398Z,2.37
2018-07-17T10:49:04.143Z,2.13
2018-07-17T10:51:32.711Z,1.90
2018-07-17T10:54:01.521Z,2.37
2018-07-17T10:56:30.181Z,2.20
2018-07-17T10:58:59.211Z,2.60
2018-07-17T11:01:28.004Z,2.77
2018-07-17T11:03:57.212Z,2.60
2018-07-17T11:06:25.959Z,2.70
2018-07-17T11:08:54.594Z,2.77
2018-07-17T11:11:23.591Z,2.77
2018-07-17T11:13:52.278Z,2.80
2018-07-17T11:16:21.185Z,2.60
2018-07-17T11:18:50.063Z,2.80
2018-07-17T11:21:18.758Z,2.60
2018-07-17T11:23:47.737Z,2.50
2018-07-17T11:26:16.442Z,3.17
2018-07-17T11:28:45.118Z,3.17
2018-07-17T11:31:13.847Z,2.70
2018-07-17T11:33:42.523Z,2.57
2018-07-17T11:36:11.166Z,3.10
2018-07-17T11:38:40.009Z,2.80
2018-07-17T11:41:08.619Z,2.60
2018-07-17T11:43:37.259Z,2.50
2018-07-17T11:46:05.889Z,2.40
2018-07-17T11:48:34.544Z,2.40
2018-07-17T11:51:03.180Z,2.10
2018-07-17T11:53:31.952Z,3.00
2018-07-17T11:56:00.618Z,2.30
2018-07-17T11:58:29.682Z,2.50
2018-07-17T12:00:58.460Z,1.90
2018-07-17T12:03:27.096Z,2.30
2018-07-17T12:06:02.682Z,2.40
2018-07-17T12:08:33.152Z,2.30
2018-07-17T12:11:02.913Z,2.37
2018-07-17T12:13:31.497Z,2.20
2018-07-17T12:16:00.174Z,2.23
2018-07-17T12:18:28.764Z,2.37
2018-07-17T12:20:57.388Z,2.00
2018-07-17T12:23:26.040Z,2.10
2018-07-17T12:25:54.647Z,2.07
2018-07-17T12:28:23.459Z,2.13
2018-07-17T12:30:52.134Z,2.20
2018-07-17T12:33:20.780Z,1.90
2018-07-17T12:35:49.438Z,1.90
2018-07-17T12:38:18.072Z,1.70
2018-07-17T12:40:46.704Z,2.10
2018-07-17T12:43:15.736Z,2.00
2018-07-17T12:45:44.698Z,2.00
2018-07-17T12:48:13.709Z,1.80
2018-07-17T12:50:43.374Z,1.90
2018-07-17T12:53:12.444Z,1.60
2018-07-17T12:55:41.296Z,1.70
2018-07-17T12:58:09.850Z,1.70
2018-07-17T13:00:38.564Z,1.77
2018-07-17T13:03:07.592Z,1.90
2018-07-17T13:05:36.175Z,1.70
2018-07-17T13:08:04.774Z,1.50
2018-07-17T13:10:33.388Z,1.77
2018-07-17T13:13:02.036Z,1.90
2018-07-17T13:15:30.735Z,1.70
2018-07-17T13:17:59.410Z,2.00
2018-07-17T13:20:27.995Z,1.80
2018-07-17T13:22:56.588Z,1.60
2018-07-17T13:25:25.351Z,1.67
2018-07-17T13:27:53.929Z,1.50
2018-07-17T13:30:22.549Z,1.70
2018-07-17T13:32:51.133Z,1.90
2018-07-17T13:35:19.751Z,1.70
2018-07-17T13:37:48.346Z,1.60
2018-07-17T13:40:16.949Z,1.60
2018-07-17T13:42:45.702Z,1.60
2018-07-17T13:45:14.424Z,1.80
2018-07-17T13:47:43.473Z,1.70
2018-07-17T13:50:12.214Z,1.50
2018-07-17T13:52:40.925Z,1.50
2018-07-17T13:55:09.791Z,1.60
2018-07-17T13:57:39.078Z,1.53
2018-07-17T14:00:08.449Z,1.40
2018-07-17T14:02:36.961Z,1.13
2018-07-17T14:05:05.836Z,1.37
2018-07-17T14:07:34.539Z,1.37
2018-07-17T14:10:03.325Z,1.30
2018-07-17T14:12:31.894Z,1.70
2018-07-17T14:15:00.547Z,1.60
2018-07-17T14:17:29.319Z,1.30
2018-07-17T14:19:57.857Z,1.23
2018-07-17T14:22:26.520Z,1.30
2018-07-17T14:24:55.154Z,1.30
2018-07-17T14:27:24.723Z,1.37
2018-07-17T14:29:53.287Z,1.20
2018-07-17T14:32:22.043Z,1.43
2018-07-17T14:34:50.612Z,1.50
2018-07-17T14:37:19.243Z,1.90
2018-07-17T14:39:47.826Z,1.30
2018-07-17T14:42:16.530Z,1.37
2018-07-17T14:44:45.114Z,1.57
2018-07-17T14:47:13.837Z,1.70
2018-07-17T14:49:42.448Z,1.50
2018-07-17T14:52:11.117Z,1.67
2018-07-17T14:54:39.778Z,1.80
2018-07-17T14:57:08.418Z,1.67
2018-07-17T14:59:37.016Z,1.83
2018-07-17T15:02:05.674Z,1.80
2018-07-17T15:04:34.287Z,1.67
2018-07-17T15:07:02.865Z,1.90
2018-07-17T15:09:31.523Z,1.80
2018-07-17T15:12:00.066Z,1.60
2018-07-17T15:14:28.724Z,1.87
2018-07-17T15:16:57.395Z,1.90
2018-07-17T15:19:25.989Z,1.83
2018-07-17T15:21:54.684Z,1.90
2018-07-17T15:24:23.266Z,1.80
2018-07-17T15:26:51.931Z,1.80
2018-07-17T15:29:20.702Z,1.73
2018-07-17T15:31:49.397Z,1.73
2018-07-17T15:34:18.020Z,1.90
2018-07-17T15:36:46.654Z,1.60
2018-07-17T15:39:15.553Z,2.00
2018-07-17T15:41:44.227Z,1.90
2018-07-17T15:44:12.802Z,1.60
2018-07-17T15:46:41.353Z,1.90
2018-07-17T15:49:10.023Z,1.70
2018-07-17T15:51:38.693Z,1.70
2018-07-17T15:54:07.477Z,1.80
2018-07-17T15:56:36.173Z,1.73
2018-07-17T15:59:04.780Z,1.80
2018-07-17T16:01:33.680Z,1.83
2018-07-17T16:04:02.331Z,1.83
2018-07-17T16:06:31.201Z,1.60
2018-07-17T16:08:59.839Z,1.50
2018-07-17T16:11:28.471Z,2.00
2018-07-17T16:13:57.242Z,1.80
2018-07-17T16:16:25.756Z,1.73
2018-07-17T16:18:54.369Z,1.60
2018-07-17T16:21:23.093Z,1.70
2018-07-17T16:23:51.836Z,1.80
2018-07-17T16:26:20.536Z,1.30
2018-07-17T16:28:49.136Z,2.00
2018-07-17T16:31:18.831Z,1.70
2018-07-17T16:33:47.406Z,1.80
2018-07-17T16:36:16.082Z,1.57
2018-07-17T16:38:44.742Z,1.67
2018-07-17T16:41:13.374Z,1.43
2018-07-17T16:43:41.996Z,1.40
2018-07-17T16:46:10.595Z,1.70
2018-07-17T16:48:39.322Z,1.40
2018-07-17T16:51:07.901Z,1.40
2018-07-17T16:53:36.479Z,1.50
2018-07-17T16:56:05.161Z,1.50
2018-07-17T16:58:33.816Z,1.40
2018-07-17T17:01:02.442Z,1.33
2018-07-17T17:03:30.977Z,1.23
2018-07-17T17:05:59.541Z,1.53
2018-07-17T17:08:28.486Z,1.23
2018-07-17T17:10:57.226Z,1.30
2018-07-17T17:13:25.809Z,1.63
2018-07-17T17:15:54.548Z,1.50
2018-07-17T17:18:23.198Z,1.40
2018-07-17T17:20:52.214Z,1.37
2018-07-17T17:23:21.052Z,1.30
2018-07-17T17:25:49.790Z,1.17
2018-07-17T17:28:18.362Z,1.40
2018-07-17T17:30:47.440Z,1.10
2018-07-17T17:33:16.249Z,1.20
2018-07-17T17:35:45.163Z,1.40
2018-07-17T17:38:13.921Z,1.10
2018-07-17T17:40:42.604Z,1.20
2018-07-17T17:43:12.683Z,1.17
2018-07-17T17:45:41.386Z,1.30
2018-07-17T17:48:09.999Z,1.30
2018-07-17T17:50:38.944Z,1.20
2018-07-17T17:53:07.647Z,1.10
2018-07-17T17:55:36.213Z,1.20
2018-07-17T17:58:04.938Z,1.10
2018-07-17T18:00:33.570Z,1.20
2018-07-17T18:03:02.202Z,1.10
2018-07-17T18:05:30.882Z,1.10
2018-07-17T18:07:59.412Z,1.00
2018-07-17T18:10:28.003Z,1.10
2018-07-17T18:12:57.196Z,1.30
2018-07-17T18:15:26.043Z,1.10
2018-07-17T18:17:55.246Z,1.00
2018-07-17T18:20:24.045Z,1.00
2018-07-17T18:22:52.740Z,1.00
2018-07-17T18:25:21.481Z,1.00
2018-07-17T18:27:50.384Z,1.00
2018-07-17T18:30:19.536Z,1.10
2018-07-17T18:32:48.609Z,0.90
2018-07-17T18:35:17.471Z,1.00
2018-07-17T18:37:46.060Z,1.20
2018-07-17T18:40:14.734Z,0.97
2018-07-17T18:42:43.348Z,1.20
2018-07-17T18:45:11.626Z,1.20
2018-07-17T18:47:40.232Z,1.10
2018-07-17T18:50:12.865Z,1.10
2018-07-17T18:52:37.992Z,1.10
2018-07-17T18:55:06.830Z,1.30
2018-07-17T18:57:35.804Z,1.53
2018-07-17T19:00:05.397Z,1.90
2018-07-17T19:02:34.882Z,1.20
2018-07-17T19:05:03.461Z,1.73
2018-07-17T19:07:32.161Z,1.50
2018-07-17T19:10:01.900Z,1.70
2018-07-17T19:12:30.630Z,1.40
2018-07-17T19:14:59.671Z,1.47
2018-07-17T19:17:28.270Z,1.60
2018-07-17T19:19:56.862Z,1.50
2018-07-17T19:22:25.414Z,1.50
2018-07-17T19:24:54.247Z,1.50
2018-07-17T19:27:23.114Z,1.47
2018-07-17T19:29:51.787Z,1.40
2018-07-17T19:32:20.449Z,1.40
2018-07-17T19:34:49.206Z,1.40
2018-07-17T19:37:17.885Z,1.40
2018-07-17T19:39:46.817Z,1.50
2018-07-17T19:42:15.408Z,1.73
2018-07-17T19:44:44.537Z,1.40
2018-07-17T19:47:13.195Z,1.40
2018-07-17T19:49:41.736Z,1.40
2018-07-17T19:52:10.352Z,1.30
2018-07-17T19:54:38.964Z,1.30
2018-07-17T19:57:07.514Z,1.40
2018-07-17T19:59:36.607Z,1.50
2018-07-17T20:02:05.566Z,1.47
2018-07-17T20:04:34.301Z,1.30
2018-07-17T20:07:03.266Z,1.30
2018-07-17T20:09:31.824Z,1.33
2018-07-17T20:12:00.466Z,1.40
2018-07-17T20:14:29.048Z,1.30
2018-07-17T20:16:57.626Z,1.33
2018-07-17T20:19:26.976Z,1.40
2018-07-17T20:21:55.609Z,1.40
2018-07-17T20:24:24.496Z,1.27
2018-07-17T20:26:53.105Z,1.30
2018-07-17T20:29:21.778Z,1.43
2018-07-17T20:31:50.384Z,1.50
2018-07-17T20:34:18.941Z,1.30
2018-07-17T20:36:47.584Z,1.20
2018-07-17T20:39:16.710Z,1.37
2018-07-17T20:41:45.507Z,1.40
2018-07-17T20:44:14.156Z,1.30
2018-07-17T20:46:42.988Z,1.40
2018-07-17T20:49:11.834Z,1.23
2018-07-17T20:51:41.044Z,1.20
2018-07-17T20:54:09.628Z,1.10
2018-07-17T20:56:38.211Z,1.10
2018-07-17T20:59:06.753Z,1.20
2018-07-17T21:01:35.393Z,1.40
2018-07-17T21:04:04.260Z,1.23
2018-07-17T21:06:32.942Z,1.10
2018-07-17T21:09:02.022Z,1.10
2018-07-17T21:11:30.761Z,1.07
2018-07-17T21:13:59.645Z,0.97
2018-07-17T21:16:28.269Z,1.20
2018-07-17T21:18:57.119Z,1.20
2018-07-17T21:21:25.749Z,1.17
2018-07-17T21:23:54.285Z,1.00
2018-07-17T21:26:22.535Z,1.20
2018-07-17T21:28:50.829Z,1.00
2018-07-17T21:31:19.609Z,1.10
2018-07-17T21:33:48.425Z,1.20
2018-07-17T21:36:17.141Z,1.27
2018-07-17T21:38:45.864Z,1.10
2018-07-17T21:41:14.498Z,1.20
2018-07-17T21:43:43.534Z,1.20
2018-07-17T21:46:12.143Z,1.20
2018-07-17T21:48:40.420Z,1.00
2018-07-17T21:51:09.029Z,1.30
2018-07-17T21:53:37.652Z,1.20
2018-07-17T21:56:06.456Z,1.13
2018-07-17T21:58:35.079Z,1.30
2018-07-17T22:01:03.669Z,1.20
2018-07-17T22:03:32.215Z,1.20
2018-07-17T22:06:00.813Z,1.23
2018-07-17T22:08:29.353Z,1.30
2018-07-17T22:10:58.095Z,1.30
2018-07-17T22:13:27.697Z,1.07
2018-07-17T22:15:56.794Z,1.40
2018-07-17T22:18:25.747Z,1.13
2018-07-17T22:20:54.353Z,1.20
2018-07-17T22:23:23.128Z,1.20
2018-07-17T22:25:51.786Z,1.33
2018-07-17T22:28:20.407Z,1.20
2018-07-17T22:30:49.039Z,1.17
2018-07-17T22:33:18.105Z,1.57
2018-07-17T22:35:46.684Z,1.20
2018-07-17T22:38:16.555Z,1.10
2018-07-17T22:40:45.117Z,1.23
2018-07-17T22:43:13.711Z,1.20
2018-07-17T22:45:42.030Z,1.10
2018-07-17T22:48:10.588Z,1.20
2018-07-17T22:50:39.513Z,1.40
2018-07-17T22:53:08.006Z,1.20
2018-07-17T22:55:36.551Z,1.53
2018-07-17T22:58:05.128Z,1.40
2018-07-17T23:00:34.239Z,1.47
2018-07-17T23:03:02.890Z,1.60
2018-07-17T23:05:31.425Z,1.90
2018-07-17T23:08:00.054Z,1.90
2018-07-17T23:10:28.667Z,1.70
2018-07-17T23:12:57.596Z,1.90
2018-07-17T23:15:26.475Z,1.80
2018-07-17T23:17:55.040Z,1.90
2018-07-17T23:20:24.067Z,1.70
2018-07-17T23:22:55.029Z,1.60
2018-07-17T23:25:25.066Z,1.90
2018-07-17T23:27:54.338Z,1.67
2018-07-17T23:30:22.944Z,1.50
2018-07-17T23:32:52.067Z,2.00
2018-07-17T23:35:21.986Z,1.80
2018-07-17T23:37:51.298Z,1.80
2018-07-17T23:40:20.235Z,2.20
2018-07-17T23:42:48.863Z,1.80
2018-07-17T23:45:18.298Z,2.00
2018-07-17T23:47:47.759Z,1.80
2018-07-17T23:50:16.289Z,1.63
2018-07-17T23:52:44.854Z,1.90
2018-07-17T23:55:13.537Z,1.80
2018-07-17T23:57:41.866Z,2.00
